Charles N Curtis — WD8128 — position and weather

sailwx.info

Track history (hours):
 
Tides and Currents Weather Stations Pressure Air Temp Water Temp Dewpoint Dewpoint Depression Visibility Wind Speed Wind Dir Waves Ship Positions

Charles N Curtis

Owner: CHARLES N CURTIS, TACOMA, WA. More information available from US FCC via Universal Licensing System and Coast Guard Vessel Documentation Center.

Last reported at 2018-Jul-15 01:42 UTC. Time now 2018-Jul-16 12:50 UTC.
Position N 47°15' W 122°26'.

Length 23 m; draft 1.4 m.

Type: Passenger vessel. MMSI: 366902590.

Date/timePositionNaut miles runAvg speedWind from/ knotsBaromVisibWave heightAir tempDewpointWater temp
2018-Jul-15 01:42N 47°15' W 122°26'0 0.2
2018-Jul-15 01:30N 47°15' W 122°26'4 7.7
2018-Jul-15 01:00N 47°19' W 122°29'4 8.3
2018-Jul-15 00:31N 47°23' W 122°28'4 8.8
2018-Jul-15 00:00N 47°18' W 122°27'4 7.1
2018-Jul-14 23:30N 47°16' W 122°23'1 2.8
2018-Jul-14 23:00N 47°17' W 122°25'1 2.8
2018-Jul-14 22:30N 47°16' W 122°26'0 0.5
2018-Jul-14 21:43N 47°15' W 122°26'1 2.7
2018-Jul-14 21:30N 47°16' W 122°26'510.7
2018-Jul-14 21:00N 47°21' W 122°29'0 0.1
2018-Jul-14 20:30N 47°21' W 122°29'3 6.1
2018-Jul-14 20:00N 47°18' W 122°28'3 5.2
2018-Jul-14 19:30N 47°16' W 122°26'0 0.0
2018-Jul-14 19:00N 47°16' W 122°26'1 1.1
2018-Jul-14 18:30N 47°16' W 122°27'1 1.9
2018-Jul-14 18:00N 47°17' W 122°27'1 1.3
2018-Jul-14 17:30N 47°17' W 122°28'  
2018-Jul-11 03:34N 47°15' W 122°26'0 3.2
2018-Jul-11 03:30N 47°15' W 122°26'1 2.2
2018-Jul-11 03:00N 47°17' W 122°26'1 1.6
2018-Jul-11 02:30N 47°17' W 122°27'1 2.0
2018-Jul-11 02:00N 47°16' W 122°26'1 2.0
2018-Jul-11 01:26N 47°15' W 122°26'0 0.0
2018-Jul-10 03:38N 47°15' W 122°26'0 2.7
2018-Jul-10 03:30N 47°16' W 122°26'2 3.1
2018-Jul-10 03:00N 47°17' W 122°26'2 3.7
2018-Jul-10 02:31N 47°15' W 122°26'  
2018-Jul-06 17:54N 47°15' W 122°26'2 4.7
2018-Jul-06 17:30N 47°17' W 122°27'  
Track history (hours):
 
Tides and Currents Weather Stations Pressure Air Temp Water Temp Dewpoint Dewpoint Depression Visibility Wind Speed Wind Dir Waves Ship Positions

Charles N Curtis

Owner: CHARLES N CURTIS, TACOMA, WA. More information available from US FCC via Universal Licensing System and Coast Guard Vessel Documentation Center.

Last reported at 2018-Jul-15 01:42 UTC. Time now 2018-Jul-16 12:50 UTC.
Position N 47°15' W 122°26'.

Length 23 m; draft 1.4 m.

Type: Passenger vessel. MMSI: 366902590.

Date/timePositionNaut miles runAvg speedWind from/ knotsBaromVisibWave heightAir tempDewpointWater temp
2018-Jul-15 01:42N 47°15' W 122°26'0 0.2
2018-Jul-15 01:30N 47°15' W 122°26'4 7.7
2018-Jul-15 01:00N 47°19' W 122°29'4 8.3
2018-Jul-15 00:31N 47°23' W 122°28'4 8.8
2018-Jul-15 00:00N 47°18' W 122°27'4 7.1
2018-Jul-14 23:30N 47°16' W 122°23'1 2.8
2018-Jul-14 23:00N 47°17' W 122°25'1 2.8
2018-Jul-14 22:30N 47°16' W 122°26'0 0.5
2018-Jul-14 21:43N 47°15' W 122°26'1 2.7
2018-Jul-14 21:30N 47°16' W 122°26'510.7
2018-Jul-14 21:00N 47°21' W 122°29'0 0.1
2018-Jul-14 20:30N 47°21' W 122°29'3 6.1
2018-Jul-14 20:00N 47°18' W 122°28'3 5.2
2018-Jul-14 19:30N 47°16' W 122°26'0 0.0
2018-Jul-14 19:00N 47°16' W 122°26'1 1.1
2018-Jul-14 18:30N 47°16' W 122°27'1 1.9
2018-Jul-14 18:00N 47°17' W 122°27'1 1.3
2018-Jul-14 17:30N 47°17' W 122°28'  
2018-Jul-11 03:34N 47°15' W 122°26'0 3.2
2018-Jul-11 03:30N 47°15' W 122°26'1 2.2
2018-Jul-11 03:00N 47°17' W 122°26'1 1.6
2018-Jul-11 02:30N 47°17' W 122°27'1 2.0
2018-Jul-11 02:00N 47°16' W 122°26'1 2.0
2018-Jul-11 01:26N 47°15' W 122°26'0 0.0
2018-Jul-10 03:38N 47°15' W 122°26'0 2.7
2018-Jul-10 03:30N 47°16' W 122°26'2 3.1
2018-Jul-10 03:00N 47°17' W 122°26'2 3.7
2018-Jul-10 02:31N 47°15' W 122°26'  
2018-Jul-06 17:54N 47°15' W 122°26'2 4.7
2018-Jul-06 17:30N 47°17' W 122°27'  

Dump ship's entire track history